sensor_id;sensor_type;location;lat;lon;timestamp;P1;durP1;ratioP1;P2;durP2;ratioP2
67503;SDS011;54351;49.108;1.502;2023-03-01T00:02:03;203.68;;;191.45;;
67503;SDS011;54351;49.108;1.502;2023-03-01T00:04:29;206.23;;;194.18;;
67503;SDS011;54351;49.108;1.502;2023-03-01T00:06:55;220.88;;;207.88;;
67503;SDS011;54351;49.108;1.502;2023-03-01T00:09:22;208.55;;;196.25;;
67503;SDS011;54351;49.108;1.502;2023-03-01T00:11:48;213.93;;;201.20;;
67503;SDS011;54351;49.108;1.502;2023-03-01T00:14:14;258.77;;;243.35;;
67503;SDS011;54351;49.108;1.502;2023-03-01T00:16:42;207.38;;;195.27;;
67503;SDS011;54351;49.108;1.502;2023-03-01T00:19:10;193.75;;;182.43;;
67503;SDS011;54351;49.108;1.502;2023-03-01T00:21:37;197.73;;;186.32;;
67503;SDS011;54351;49.108;1.502;2023-03-01T00:24:03;193.55;;;182.15;;
67503;SDS011;54351;49.108;1.502;2023-03-01T00:26:29;201.13;;;189.43;;
67503;SDS011;54351;49.108;1.502;2023-03-01T00:28:56;193.88;;;182.48;;
67503;SDS011;54351;49.108;1.502;2023-03-01T00:31:23;206.07;;;194.00;;
67503;SDS011;54351;49.108;1.502;2023-03-01T00:33:52;209.52;;;197.43;;
67503;SDS011;54351;49.108;1.502;2023-03-01T00:36:22;220.05;;;206.82;;
67503;SDS011;54351;49.108;1.502;2023-03-01T00:38:48;231.82;;;218.38;;
67503;SDS011;54351;49.108;1.502;2023-03-01T00:41:15;195.27;;;183.90;;
67503;SDS011;54351;49.108;1.502;2023-03-01T00:43:41;211.35;;;198.55;;
67503;SDS011;54351;49.108;1.502;2023-03-01T00:46:09;192.27;;;180.98;;
67503;SDS011;54351;49.108;1.502;2023-03-01T00:48:35;220.77;;;207.57;;
67503;SDS011;54351;49.108;1.502;2023-03-01T00:53:31;204.45;;;192.48;;
67503;SDS011;54351;49.108;1.502;2023-03-01T00:55:57;226.40;;;213.02;;
67503;SDS011;54351;49.108;1.502;2023-03-01T00:58:24;214.32;;;201.75;;
67503;SDS011;54351;49.108;1.502;2023-03-01T01:00:50;204.88;;;193.05;;
67503;SDS011;54351;49.108;1.502;2023-03-01T01:03:17;250.35;;;235.75;;
67503;SDS011;54351;49.108;1.502;2023-03-01T01:05:43;208.73;;;196.57;;
67503;SDS011;54351;49.108;1.502;2023-03-01T01:08:09;221.35;;;208.55;;
67503;SDS011;54351;49.108;1.502;2023-03-01T01:10:36;216.80;;;204.55;;
67503;SDS011;54351;49.108;1.502;2023-03-01T01:13:02;221.35;;;208.52;;
67503;SDS011;54351;49.108;1.502;2023-03-01T01:15:28;253.57;;;239.05;;
67503;SDS011;54351;49.108;1.502;2023-03-01T01:17:54;234.60;;;221.23;;
67503;SDS011;54351;49.108;1.502;2023-03-01T01:20:20;247.82;;;233.60;;
67503;SDS011;54351;49.108;1.502;2023-03-01T01:22:46;239.10;;;225.48;;
67503;SDS011;54351;49.108;1.502;2023-03-01T01:25:13;250.52;;;236.20;;
67503;SDS011;54351;49.108;1.502;2023-03-01T01:27:39;218.30;;;206.05;;
67503;SDS011;54351;49.108;1.502;2023-03-01T01:30:05;243.77;;;229.73;;
67503;SDS011;54351;49.108;1.502;2023-03-01T01:32:31;236.18;;;222.93;;
67503;SDS011;54351;49.108;1.502;2023-03-01T01:34:57;229.60;;;216.30;;
67503;SDS011;54351;49.108;1.502;2023-03-01T01:37:23;246.10;;;232.20;;
67503;SDS011;54351;49.108;1.502;2023-03-01T01:39:56;247.75;;;233.75;;
67503;SDS011;54351;49.108;1.502;2023-03-01T01:42:22;230.65;;;217.68;;
67503;SDS011;54351;49.108;1.502;2023-03-01T01:44:48;211.30;;;199.18;;
67503;SDS011;54351;49.108;1.502;2023-03-01T01:47:34;196.00;;;184.55;;
67503;SDS011;54351;49.108;1.502;2023-03-01T01:50:00;217.63;;;205.48;;
67503;SDS011;54351;49.108;1.502;2023-03-01T01:52:27;209.75;;;197.77;;
67503;SDS011;54351;49.108;1.502;2023-03-01T01:57:27;203.40;;;191.63;;
67503;SDS011;54351;49.108;1.502;2023-03-01T01:59:56;209.23;;;197.38;;
67503;SDS011;54351;49.108;1.502;2023-03-01T02:02:24;231.40;;;218.13;;
67503;SDS011;54351;49.108;1.502;2023-03-01T02:04:52;229.68;;;216.85;;
67503;SDS011;54351;49.108;1.502;2023-03-01T02:07:22;212.45;;;200.43;;
67503;SDS011;54351;49.108;1.502;2023-03-01T02:09:50;229.55;;;216.60;;
67503;SDS011;54351;49.108;1.502;2023-03-01T02:12:18;228.95;;;215.77;;
67503;SDS011;54351;49.108;1.502;2023-03-01T02:14:45;217.95;;;205.73;;
67503;SDS011;54351;49.108;1.502;2023-03-01T02:17:11;223.88;;;210.95;;
67503;SDS011;54351;49.108;1.502;2023-03-01T02:22:24;229.38;;;216.63;;
67503;SDS011;54351;49.108;1.502;2023-03-01T02:27:58;248.77;;;235.00;;
67503;SDS011;54351;49.108;1.502;2023-03-01T02:30:22;255.82;;;241.48;;
67503;SDS011;54351;49.108;1.502;2023-03-01T02:32:48;256.92;;;242.65;;
67503;SDS011;54351;49.108;1.502;2023-03-01T02:35:15;265.70;;;250.88;;
67503;SDS011;54351;49.108;1.502;2023-03-01T02:37:42;280.10;;;264.23;;
67503;SDS011;54351;49.108;1.502;2023-03-01T02:40:11;263.55;;;248.75;;
67503;SDS011;54351;49.108;1.502;2023-03-01T02:42:44;238.98;;;225.55;;
67503;SDS011;54351;49.108;1.502;2023-03-01T02:45:12;235.32;;;222.25;;
67503;SDS011;54351;49.108;1.502;2023-03-01T02:47:38;252.65;;;238.43;;
67503;SDS011;54351;49.108;1.502;2023-03-01T02:50:10;269.80;;;254.80;;
67503;SDS011;54351;49.108;1.502;2023-03-01T02:52:40;253.13;;;239.02;;
67503;SDS011;54351;49.108;1.502;2023-03-01T02:55:15;245.52;;;231.75;;
67503;SDS011;54351;49.108;1.502;2023-03-01T02:57:43;270.15;;;255.10;;
67503;SDS011;54351;49.108;1.502;2023-03-01T03:00:14;294.95;;;278.30;;
67503;SDS011;54351;49.108;1.502;2023-03-01T03:02:50;285.10;;;269.17;;
67503;SDS011;54351;49.108;1.502;2023-03-01T03:05:21;272.55;;;257.02;;
67503;SDS011;54351;49.108;1.502;2023-03-01T03:07:47;283.95;;;267.88;;
67503;SDS011;54351;49.108;1.502;2023-03-01T03:10:18;279.85;;;264.30;;
67503;SDS011;54351;49.108;1.502;2023-03-01T03:12:55;292.98;;;276.42;;
67503;SDS011;54351;49.108;1.502;2023-03-01T03:15:22;279.58;;;263.98;;
67503;SDS011;54351;49.108;1.502;2023-03-01T03:17:49;278.63;;;263.00;;
67503;SDS011;54351;49.108;1.502;2023-03-01T03:20:16;276.95;;;261.45;;
67503;SDS011;54351;49.108;1.502;2023-03-01T03:22:53;292.00;;;275.52;;
67503;SDS011;54351;49.108;1.502;2023-03-01T03:25:20;278.15;;;262.67;;
67503;SDS011;54351;49.108;1.502;2023-03-01T03:27:47;280.23;;;264.45;;
67503;SDS011;54351;49.108;1.502;2023-03-01T03:30:15;275.05;;;259.63;;
67503;SDS011;54351;49.108;1.502;2023-03-01T03:32:42;269.95;;;254.90;;
67503;SDS011;54351;49.108;1.502;2023-03-01T03:35:17;272.38;;;257.15;;
67503;SDS011;54351;49.108;1.502;2023-03-01T03:37:44;280.05;;;264.27;;
67503;SDS011;54351;49.108;1.502;2023-03-01T03:40:29;286.52;;;270.42;;
67503;SDS011;54351;49.108;1.502;2023-03-01T03:42:55;287.65;;;271.33;;
67503;SDS011;54351;49.108;1.502;2023-03-01T03:45:21;274.10;;;258.65;;
67503;SDS011;54351;49.108;1.502;2023-03-01T03:47:47;275.40;;;260.05;;
67503;SDS011;54351;49.108;1.502;2023-03-01T03:50:14;272.27;;;257.17;;
67503;SDS011;54351;49.108;1.502;2023-03-01T03:52:41;268.33;;;253.45;;
67503;SDS011;54351;49.108;1.502;2023-03-01T03:55:08;273.75;;;258.60;;
67503;SDS011;54351;49.108;1.502;2023-03-01T03:57:38;262.13;;;247.63;;
67503;SDS011;54351;49.108;1.502;2023-03-01T04:00:04;279.88;;;264.08;;
67503;SDS011;54351;49.108;1.502;2023-03-01T04:02:37;261.58;;;247.10;;
67503;SDS011;54351;49.108;1.502;2023-03-01T04:05:03;273.85;;;258.50;;
67503;SDS011;54351;49.108;1.502;2023-03-01T04:07:30;278.13;;;262.50;;
67503;SDS011;54351;49.108;1.502;2023-03-01T04:09:56;276.58;;;261.00;;
67503;SDS011;54351;49.108;1.502;2023-03-01T04:12:22;266.45;;;251.07;;
67503;SDS011;54351;49.108;1.502;2023-03-01T04:14:48;289.50;;;273.38;;
67503;SDS011;54351;49.108;1.502;2023-03-01T04:17:14;277.80;;;262.10;;
67503;SDS011;54351;49.108;1.502;2023-03-01T04:19:40;285.45;;;268.90;;
67503;SDS011;54351;49.108;1.502;2023-03-01T04:22:09;281.17;;;265.38;;
67503;SDS011;54351;49.108;1.502;2023-03-01T04:24:36;264.70;;;249.77;;
67503;SDS011;54351;49.108;1.502;2023-03-01T04:27:02;274.17;;;258.77;;
67503;SDS011;54351;49.108;1.502;2023-03-01T04:29:28;287.38;;;271.17;;
67503;SDS011;54351;49.108;1.502;2023-03-01T04:31:55;262.95;;;247.88;;
67503;SDS011;54351;49.108;1.502;2023-03-01T04:34:21;279.73;;;263.75;;
67503;SDS011;54351;49.108;1.502;2023-03-01T04:36:47;226.57;;;213.48;;
67503;SDS011;54351;49.108;1.502;2023-03-01T04:39:13;279.90;;;264.00;;
67503;SDS011;54351;49.108;1.502;2023-03-01T04:41:39;283.60;;;267.17;;
67503;SDS011;54351;49.108;1.502;2023-03-01T04:44:06;245.63;;;231.07;;
67503;SDS011;54351;49.108;1.502;2023-03-01T04:46:34;239.93;;;225.75;;
67503;SDS011;54351;49.108;1.502;2023-03-01T04:49:00;241.50;;;227.43;;
67503;SDS011;54351;49.108;1.502;2023-03-01T04:51:26;247.02;;;232.48;;
67503;SDS011;54351;49.108;1.502;2023-03-01T04:53:52;292.08;;;274.92;;
67503;SDS011;54351;49.108;1.502;2023-03-01T04:56:18;276.77;;;260.60;;
67503;SDS011;54351;49.108;1.502;2023-03-01T04:58:45;240.48;;;226.02;;
67503;SDS011;54351;49.108;1.502;2023-03-01T05:01:11;207.63;;;195.13;;
67503;SDS011;54351;49.108;1.502;2023-03-01T05:03:44;243.35;;;228.93;;
67503;SDS011;54351;49.108;1.502;2023-03-01T05:06:11;172.35;;;160.80;;
67503;SDS011;54351;49.108;1.502;2023-03-01T05:08:37;228.63;;;214.60;;
67503;SDS011;54351;49.108;1.502;2023-03-01T05:11:04;244.68;;;229.50;;
67503;SDS011;54351;49.108;1.502;2023-03-01T05:13:30;257.98;;;242.57;;
67503;SDS011;54351;49.108;1.502;2023-03-01T05:16:01;224.63;;;211.05;;
67503;SDS011;54351;49.108;1.502;2023-03-01T05:18:28;203.55;;;191.27;;
67503;SDS011;54351;49.108;1.502;2023-03-01T05:20:55;215.40;;;202.57;;
67503;SDS011;54351;49.108;1.502;2023-03-01T05:23:23;242.05;;;227.23;;
67503;SDS011;54351;49.108;1.502;2023-03-01T05:25:49;119.90;;;112.00;;
67503;SDS011;54351;49.108;1.502;2023-03-01T05:28:17;185.60;;;174.05;;
67503;SDS011;54351;49.108;1.502;2023-03-01T05:30:44;200.02;;;187.68;;
67503;SDS011;54351;49.108;1.502;2023-03-01T05:33:10;128.63;;;120.18;;
67503;SDS011;54351;49.108;1.502;2023-03-01T05:35:41;192.27;;;179.93;;
67503;SDS011;54351;49.108;1.502;2023-03-01T05:38:08;149.70;;;140.02;;
67503;SDS011;54351;49.108;1.502;2023-03-01T05:40:38;136.68;;;127.50;;
67503;SDS011;54351;49.108;1.502;2023-03-01T05:43:04;108.68;;;101.18;;
67503;SDS011;54351;49.108;1.502;2023-03-01T05:45:30;118.72;;;110.90;;
67503;SDS011;54351;49.108;1.502;2023-03-01T05:47:57;117.18;;;108.78;;
67503;SDS011;54351;49.108;1.502;2023-03-01T05:50:24;149.77;;;140.27;;
67503;SDS011;54351;49.108;1.502;2023-03-01T05:52:52;171.85;;;160.95;;
67503;SDS011;54351;49.108;1.502;2023-03-01T05:55:22;209.50;;;196.27;;
67503;SDS011;54351;49.108;1.502;2023-03-01T05:57:48;129.63;;;120.85;;
67503;SDS011;54351;49.108;1.502;2023-03-01T06:00:16;129.98;;;120.78;;
67503;SDS011;54351;49.108;1.502;2023-03-01T06:02:43;86.53;;;80.38;;
67503;SDS011;54351;49.108;1.502;2023-03-01T06:05:10;79.38;;;73.25;;
67503;SDS011;54351;49.108;1.502;2023-03-01T06:07:36;91.20;;;84.30;;
67503;SDS011;54351;49.108;1.502;2023-03-01T06:10:03;83.28;;;76.38;;
67503;SDS011;54351;49.108;1.502;2023-03-01T06:12:30;112.70;;;104.82;;
67503;SDS011;54351;49.108;1.502;2023-03-01T06:14:56;78.85;;;72.60;;
67503;SDS011;54351;49.108;1.502;2023-03-01T06:17:22;112.18;;;104.20;;
67503;SDS011;54351;49.108;1.502;2023-03-01T06:19:48;138.85;;;129.43;;
67503;SDS011;54351;49.108;1.502;2023-03-01T06:22:14;98.00;;;90.72;;
67503;SDS011;54351;49.108;1.502;2023-03-01T06:24:40;84.07;;;77.80;;
67503;SDS011;54351;49.108;1.502;2023-03-01T06:27:06;71.90;;;66.10;;
67503;SDS011;54351;49.108;1.502;2023-03-01T06:29:33;40.80;;;37.05;;
67503;SDS011;54351;49.108;1.502;2023-03-01T06:31:59;72.13;;;66.63;;
67503;SDS011;54351;49.108;1.502;2023-03-01T06:34:25;144.20;;;134.52;;
67503;SDS011;54351;49.108;1.502;2023-03-01T06:36:51;88.80;;;82.15;;
67503;SDS011;54351;49.108;1.502;2023-03-01T06:39:17;61.05;;;55.92;;
67503;SDS011;54351;49.108;1.502;2023-03-01T06:41:44;71.43;;;65.85;;
67503;SDS011;54351;49.108;1.502;2023-03-01T06:44:10;57.45;;;52.72;;
67503;SDS011;54351;49.108;1.502;2023-03-01T06:46:36;82.85;;;76.60;;
67503;SDS011;54351;49.108;1.502;2023-03-01T06:49:02;49.15;;;44.90;;
67503;SDS011;54351;49.108;1.502;2023-03-01T06:51:32;47.40;;;43.10;;
67503;SDS011;54351;49.108;1.502;2023-03-01T06:53:58;52.92;;;48.17;;
67503;SDS011;54351;49.108;1.502;2023-03-01T06:56:24;72.60;;;66.90;;
67503;SDS011;54351;49.108;1.502;2023-03-01T06:58:50;79.22;;;73.30;;
67503;SDS011;54351;49.108;1.502;2023-03-01T07:01:17;59.47;;;54.42;;
67503;SDS011;54351;49.108;1.502;2023-03-01T07:03:43;50.33;;;46.03;;
67503;SDS011;54351;49.108;1.502;2023-03-01T07:06:09;43.47;;;39.50;;
67503;SDS011;54351;49.108;1.502;2023-03-01T07:08:35;46.85;;;42.50;;
67503;SDS011;54351;49.108;1.502;2023-03-01T07:11:01;44.72;;;40.78;;
67503;SDS011;54351;49.108;1.502;2023-03-01T07:13:28;42.00;;;38.17;;
67503;SDS011;54351;49.108;1.502;2023-03-01T07:15:55;44.30;;;40.05;;
67503;SDS011;54351;49.108;1.502;2023-03-01T07:18:21;61.85;;;56.85;;
67503;SDS011;54351;49.108;1.502;2023-03-01T07:20:47;61.88;;;56.63;;
67503;SDS011;54351;49.108;1.502;2023-03-01T07:23:13;41.95;;;35.65;;
67503;SDS011;54351;49.108;1.502;2023-03-01T07:25:40;35.95;;;32.40;;
67503;SDS011;54351;49.108;1.502;2023-03-01T07:28:06;32.25;;;27.73;;
67503;SDS011;54351;49.108;1.502;2023-03-01T07:30:32;35.13;;;31.33;;
67503;SDS011;54351;49.108;1.502;2023-03-01T07:32:58;29.58;;;26.50;;
67503;SDS011;54351;49.108;1.502;2023-03-01T07:35:25;30.25;;;25.08;;
67503;SDS011;54351;49.108;1.502;2023-03-01T07:37:51;41.65;;;36.90;;
67503;SDS011;54351;49.108;1.502;2023-03-01T07:40:17;38.13;;;34.67;;
67503;SDS011;54351;49.108;1.502;2023-03-01T07:42:43;35.45;;;30.73;;
67503;SDS011;54351;49.108;1.502;2023-03-01T07:45:10;33.13;;;29.70;;
67503;SDS011;54351;49.108;1.502;2023-03-01T07:47:36;32.08;;;28.83;;
67503;SDS011;54351;49.108;1.502;2023-03-01T07:50:03;50.50;;;46.20;;
67503;SDS011;54351;49.108;1.502;2023-03-01T07:52:29;68.20;;;63.05;;
67503;SDS011;54351;49.108;1.502;2023-03-01T07:54:55;51.83;;;47.50;;
67503;SDS011;54351;49.108;1.502;2023-03-01T07:57:22;50.65;;;46.33;;
67503;SDS011;54351;49.108;1.502;2023-03-01T07:59:48;36.47;;;32.58;;
67503;SDS011;54351;49.108;1.502;2023-03-01T08:02:14;32.35;;;29.10;;
67503;SDS011;54351;49.108;1.502;2023-03-01T08:04:41;37.53;;;33.67;;
67503;SDS011;54351;49.108;1.502;2023-03-01T08:07:07;39.75;;;36.38;;
67503;SDS011;54351;49.108;1.502;2023-03-01T08:09:37;26.15;;;22.10;;
67503;SDS011;54351;49.108;1.502;2023-03-01T08:12:03;39.33;;;35.72;;
67503;SDS011;54351;49.108;1.502;2023-03-01T08:14:30;55.47;;;50.60;;
67503;SDS011;54351;49.108;1.502;2023-03-01T08:16:56;37.20;;;33.50;;
67503;SDS011;54351;49.108;1.502;2023-03-01T08:19:22;55.30;;;50.58;;
67503;SDS011;54351;49.108;1.502;2023-03-01T08:21:49;58.60;;;54.00;;
67503;SDS011;54351;49.108;1.502;2023-03-01T08:24:15;67.55;;;62.35;;
67503;SDS011;54351;49.108;1.502;2023-03-01T08:26:41;61.15;;;56.17;;
67503;SDS011;54351;49.108;1.502;2023-03-01T08:29:07;63.92;;;58.50;;
67503;SDS011;54351;49.108;1.502;2023-03-01T08:31:34;54.05;;;49.78;;
67503;SDS011;54351;49.108;1.502;2023-03-01T08:34:02;56.72;;;52.08;;
67503;SDS011;54351;49.108;1.502;2023-03-01T08:36:32;76.32;;;70.63;;
67503;SDS011;54351;49.108;1.502;2023-03-01T08:38:59;83.28;;;76.63;;
67503;SDS011;54351;49.108;1.502;2023-03-01T08:41:25;64.07;;;58.40;;
67503;SDS011;54351;49.108;1.502;2023-03-01T08:43:51;62.05;;;55.95;;
67503;SDS011;54351;49.108;1.502;2023-03-01T08:46:23;75.45;;;69.20;;
67503;SDS011;54351;49.108;1.502;2023-03-01T08:48:49;53.95;;;49.10;;
67503;SDS011;54351;49.108;1.502;2023-03-01T08:51:16;66.95;;;61.60;;
67503;SDS011;54351;49.108;1.502;2023-03-01T08:53:42;93.38;;;86.07;;
67503;SDS011;54351;49.108;1.502;2023-03-01T08:56:09;97.07;;;89.88;;
67503;SDS011;54351;49.108;1.502;2023-03-01T08:58:35;107.95;;;100.38;;
67503;SDS011;54351;49.108;1.502;2023-03-01T09:01:08;75.38;;;69.47;;
67503;SDS011;54351;49.108;1.502;2023-03-01T09:03:35;176.77;;;165.02;;
67503;SDS011;54351;49.108;1.502;2023-03-01T09:06:01;96.35;;;89.25;;
67503;SDS011;54351;49.108;1.502;2023-03-01T09:08:27;140.45;;;130.65;;
67503;SDS011;54351;49.108;1.502;2023-03-01T09:10:54;188.90;;;176.00;;
67503;SDS011;54351;49.108;1.502;2023-03-01T09:13:20;226.80;;;211.27;;
67503;SDS011;54351;49.108;1.502;2023-03-01T09:15:48;66.53;;;61.42;;
67503;SDS011;54351;49.108;1.502;2023-03-01T09:18:14;87.60;;;80.85;;
67503;SDS011;54351;49.108;1.502;2023-03-01T09:20:40;79.97;;;73.50;;
67503;SDS011;54351;49.108;1.502;2023-03-01T09:23:06;57.95;;;53.08;;
67503;SDS011;54351;49.108;1.502;2023-03-01T09:25:33;61.78;;;57.00;;
67503;SDS011;54351;49.108;1.502;2023-03-01T09:28:00;54.67;;;50.38;;
67503;SDS011;54351;49.108;1.502;2023-03-01T09:30:26;88.63;;;81.90;;
67503;SDS011;54351;49.108;1.502;2023-03-01T09:32:52;66.40;;;61.58;;
67503;SDS011;54351;49.108;1.502;2023-03-01T09:35:18;62.83;;;57.90;;
67503;SDS011;54351;49.108;1.502;2023-03-01T09:37:45;80.65;;;74.90;;
67503;SDS011;54351;49.108;1.502;2023-03-01T09:40:18;129.10;;;121.00;;
67503;SDS011;54351;49.108;1.502;2023-03-01T09:43:05;127.88;;;119.45;;
67503;SDS011;54351;49.108;1.502;2023-03-01T09:45:34;112.97;;;104.53;;
67503;SDS011;54351;49.108;1.502;2023-03-01T09:48:01;145.35;;;135.93;;
67503;SDS011;54351;49.108;1.502;2023-03-01T09:50:28;183.60;;;172.13;;
67503;SDS011;54351;49.108;1.502;2023-03-01T10:00:43;242.55;;;226.57;;
67503;SDS011;54351;49.108;1.502;2023-03-01T10:03:17;331.48;;;311.10;;
67503;SDS011;54351;49.108;1.502;2023-03-01T10:05:50;333.98;;;312.95;;
67503;SDS011;54351;49.108;1.502;2023-03-01T10:08:35;295.02;;;277.58;;
67503;SDS011;54351;49.108;1.502;2023-03-01T10:11:04;255.10;;;239.63;;
67503;SDS011;54351;49.108;1.502;2023-03-01T10:16:13;290.70;;;273.48;;
67503;SDS011;54351;49.108;1.502;2023-03-01T10:18:41;220.20;;;207.18;;
67503;SDS011;54351;49.108;1.502;2023-03-01T10:21:16;168.07;;;157.63;;
67503;SDS011;54351;49.108;1.502;2023-03-01T10:23:42;190.88;;;179.25;;
67503;SDS011;54351;49.108;1.502;2023-03-01T10:31:13;109.07;;;102.07;;
67503;SDS011;54351;49.108;1.502;2023-03-01T10:33:40;63.30;;;58.60;;
67503;SDS011;54351;49.108;1.502;2023-03-01T10:36:07;57.78;;;53.30;;
67503;SDS011;54351;49.108;1.502;2023-03-01T10:38:50;74.45;;;69.03;;
67503;SDS011;54351;49.108;1.502;2023-03-01T10:41:18;55.42;;;51.80;;
67503;SDS011;54351;49.108;1.502;2023-03-01T10:44:03;73.97;;;68.88;;
67503;SDS011;54351;49.108;1.502;2023-03-01T10:49:12;96.75;;;90.70;;
67503;SDS011;54351;49.108;1.502;2023-03-01T10:51:43;106.05;;;99.50;;
67503;SDS011;54351;49.108;1.502;2023-03-01T10:54:17;116.73;;;109.40;;
67503;SDS011;54351;49.108;1.502;2023-03-01T10:56:50;111.35;;;104.45;;
67503;SDS011;54351;49.108;1.502;2023-03-01T11:02:03;199.20;;;186.20;;
67503;SDS011;54351;49.108;1.502;2023-03-01T11:04:29;113.43;;;106.60;;
67503;SDS011;54351;49.108;1.502;2023-03-01T11:06:59;83.35;;;78.10;;
67503;SDS011;54351;49.108;1.502;2023-03-01T11:09:26;95.40;;;89.40;;
67503;SDS011;54351;49.108;1.502;2023-03-01T11:12:02;96.60;;;90.38;;
67503;SDS011;54351;49.108;1.502;2023-03-01T11:14:33;92.13;;;86.20;;
67503;SDS011;54351;49.108;1.502;2023-03-01T11:17:02;79.65;;;74.60;;
67503;SDS011;54351;49.108;1.502;2023-03-01T11:19:29;88.10;;;82.43;;
67503;SDS011;54351;49.108;1.502;2023-03-01T11:21:59;78.20;;;73.05;;
67503;SDS011;54351;49.108;1.502;2023-03-01T11:24:34;86.72;;;81.30;;
67503;SDS011;54351;49.108;1.502;2023-03-01T11:27:04;66.50;;;61.97;;
67503;SDS011;54351;49.108;1.502;2023-03-01T11:29:32;71.78;;;67.10;;
67503;SDS011;54351;49.108;1.502;2023-03-01T11:32:01;60.65;;;56.55;;
67503;SDS011;54351;49.108;1.502;2023-03-01T11:34:32;58.88;;;54.88;;
67503;SDS011;54351;49.108;1.502;2023-03-01T11:37:00;66.38;;;62.00;;
67503;SDS011;54351;49.108;1.502;2023-03-01T11:42:37;143.13;;;134.05;;
67503;SDS011;54351;49.108;1.502;2023-03-01T11:44:43;179.27;;;168.38;;
67503;SDS011;54351;49.108;1.502;2023-03-01T11:47:16;95.95;;;89.60;;
67503;SDS011;54351;49.108;1.502;2023-03-01T11:57:42;130.52;;;121.90;;
67503;SDS011;54351;49.108;1.502;2023-03-01T12:10:20;241.60;;;227.45;;
67503;SDS011;54351;49.108;1.502;2023-03-01T12:17:53;168.35;;;158.40;;
67503;SDS011;54351;49.108;1.502;2023-03-01T12:23:16;197.88;;;185.48;;
67503;SDS011;54351;49.108;1.502;2023-03-01T12:28:39;191.30;;;180.02;;
67503;SDS011;54351;49.108;1.502;2023-03-01T12:36:22;140.25;;;131.95;;
67503;SDS011;54351;49.108;1.502;2023-03-01T12:38:59;119.43;;;112.15;;
67503;SDS011;54351;49.108;1.502;2023-03-01T12:49:15;83.28;;;77.97;;
67503;SDS011;54351;49.108;1.502;2023-03-01T12:51:43;64.57;;;60.43;;
67503;SDS011;54351;49.108;1.502;2023-03-01T12:54:18;123.20;;;115.78;;
67503;SDS011;54351;49.108;1.502;2023-03-01T12:56:46;77.57;;;72.80;;
67503;SDS011;54351;49.108;1.502;2023-03-01T13:04:20;33.25;;;30.60;;
67503;SDS011;54351;49.108;1.502;2023-03-01T13:09:32;32.15;;;29.88;;
67503;SDS011;54351;49.108;1.502;2023-03-01T13:11:59;32.40;;;30.08;;
67503;SDS011;54351;49.108;1.502;2023-03-01T13:16:52;15.40;;;13.93;;
67503;SDS011;54351;49.108;1.502;2023-03-01T13:19:22;32.65;;;30.33;;
67503;SDS011;54351;49.108;1.502;2023-03-01T13:21:49;33.83;;;31.13;;
67503;SDS011;54351;49.108;1.502;2023-03-01T13:34:47;38.05;;;35.20;;
67503;SDS011;54351;49.108;1.502;2023-03-01T13:37:24;19.35;;;17.63;;
67503;SDS011;54351;49.108;1.502;2023-03-01T13:39:51;34.42;;;31.63;;
67503;SDS011;54351;49.108;1.502;2023-03-01T13:42:37;29.73;;;27.42;;
67503;SDS011;54351;49.108;1.502;2023-03-01T13:45:15;36.55;;;33.78;;
67503;SDS011;54351;49.108;1.502;2023-03-01T13:47:41;30.52;;;28.05;;
67503;SDS011;54351;49.108;1.502;2023-03-01T13:50:15;40.65;;;37.83;;
67503;SDS011;54351;49.108;1.502;2023-03-01T13:52:43;62.47;;;58.33;;
67503;SDS011;54351;49.108;1.502;2023-03-01T13:55:17;42.88;;;39.85;;
67503;SDS011;54351;49.108;1.502;2023-03-01T13:57:46;56.53;;;52.55;;
67503;SDS011;54351;49.108;1.502;2023-03-01T14:03:10;77.75;;;72.45;;
67503;SDS011;54351;49.108;1.502;2023-03-01T14:05:37;74.18;;;69.40;;
67503;SDS011;54351;49.108;1.502;2023-03-01T14:08:03;65.13;;;60.35;;
67503;SDS011;54351;49.108;1.502;2023-03-01T14:10:45;63.88;;;59.33;;
67503;SDS011;54351;49.108;1.502;2023-03-01T14:19:12;53.15;;;49.03;;
67503;SDS011;54351;49.108;1.502;2023-03-01T14:21:17;41.78;;;38.78;;
67503;SDS011;54351;49.108;1.502;2023-03-01T14:23:43;41.10;;;38.10;;
67503;SDS011;54351;49.108;1.502;2023-03-01T14:26:11;63.15;;;58.90;;
67503;SDS011;54351;49.108;1.502;2023-03-01T14:28:37;62.10;;;57.42;;
67503;SDS011;54351;49.108;1.502;2023-03-01T14:31:25;60.22;;;55.97;;
67503;SDS011;54351;49.108;1.502;2023-03-01T14:33:59;87.88;;;82.18;;
67503;SDS011;54351;49.108;1.502;2023-03-01T14:36:29;111.85;;;104.78;;
67503;SDS011;54351;49.108;1.502;2023-03-01T14:38:55;84.15;;;78.90;;
67503;SDS011;54351;49.108;1.502;2023-03-01T14:41:29;53.03;;;49.47;;
67503;SDS011;54351;49.108;1.502;2023-03-01T14:44:15;61.38;;;57.38;;
67503;SDS011;54351;49.108;1.502;2023-03-01T14:46:43;49.60;;;45.70;;
67503;SDS011;54351;49.108;1.502;2023-03-01T14:51:37;75.15;;;70.60;;
67503;SDS011;54351;49.108;1.502;2023-03-01T14:54:04;80.45;;;75.40;;
67503;SDS011;54351;49.108;1.502;2023-03-01T14:56:42;73.93;;;69.38;;
67503;SDS011;54351;49.108;1.502;2023-03-01T14:59:09;66.35;;;62.08;;
67503;SDS011;54351;49.108;1.502;2023-03-01T15:01:35;83.35;;;78.20;;
67503;SDS011;54351;49.108;1.502;2023-03-01T15:04:01;90.22;;;84.68;;
67503;SDS011;54351;49.108;1.502;2023-03-01T15:06:28;84.30;;;79.28;;
67503;SDS011;54351;49.108;1.502;2023-03-01T15:08:54;79.68;;;74.60;;
67503;SDS011;54351;49.108;1.502;2023-03-01T15:13:52;82.80;;;77.70;;
67503;SDS011;54351;49.108;1.502;2023-03-01T15:16:20;92.80;;;87.15;;
67503;SDS011;54351;49.108;1.502;2023-03-01T15:18:49;66.45;;;61.97;;
67503;SDS011;54351;49.108;1.502;2023-03-01T15:21:17;71.15;;;66.50;;
67503;SDS011;54351;49.108;1.502;2023-03-01T15:24:20;68.55;;;64.10;;
67503;SDS011;54351;49.108;1.502;2023-03-01T15:26:51;89.22;;;83.57;;
67503;SDS011;54351;49.108;1.502;2023-03-01T15:29:23;75.00;;;70.43;;
67503;SDS011;54351;49.108;1.502;2023-03-01T15:32:22;55.47;;;51.63;;
67503;SDS011;54351;49.108;1.502;2023-03-01T15:34:40;65.38;;;61.30;;
67503;SDS011;54351;49.108;1.502;2023-03-01T15:37:34;80.53;;;75.47;;
67503;SDS011;54351;49.108;1.502;2023-03-01T15:39:53;89.28;;;83.65;;
67503;SDS011;54351;49.108;1.502;2023-03-01T15:47:56;112.90;;;105.82;;
67503;SDS011;54351;49.108;1.502;2023-03-01T15:50:33;90.38;;;84.55;;
67503;SDS011;54351;49.108;1.502;2023-03-01T15:53:03;78.13;;;73.35;;
67503;SDS011;54351;49.108;1.502;2023-03-01T15:55:31;60.47;;;56.47;;
67503;SDS011;54351;49.108;1.502;2023-03-01T15:58:14;66.97;;;62.47;;
67503;SDS011;54351;49.108;1.502;2023-03-01T16:00:41;77.68;;;72.70;;
67503;SDS011;54351;49.108;1.502;2023-03-01T16:03:08;123.68;;;116.15;;
67503;SDS011;54351;49.108;1.502;2023-03-01T16:05:36;87.88;;;82.22;;
67503;SDS011;54351;49.108;1.502;2023-03-01T16:08:03;86.00;;;80.70;;
67503;SDS011;54351;49.108;1.502;2023-03-01T16:10:30;104.93;;;98.68;;
67503;SDS011;54351;49.108;1.502;2023-03-01T16:12:57;96.45;;;90.35;;